Terminal Aerodrome Forecast
Issued by NWS

Home | Current Version | Previous Version | Text Only | Print | Product List | Glossary On
Versions: 1 2 3 4 5 6 7 8 9 10 11 12
000
FTUS42 TJSJ 091720
TAFJBQ
TAF
TJBQ 091720Z 0918/1018 09013G18KT P6SM SCT020
     FM092300 09005KT P6SM SCT025
     FM101500 07012KT P6SM SCT250
      AMD NOT SKED 1002/1011=

USA.gov is the U.S. government's official web portal to all federal, state and local government web resources and services.